sensor_id;sensor_type;location;lat;lon;timestamp;temperature;humidity
28438;DHT22;15667;52.376;9.708;2023-07-16T00:02:04;20.70;99.90
28438;DHT22;15667;52.376;9.708;2023-07-16T00:04:30;20.60;99.90
28438;DHT22;15667;52.376;9.708;2023-07-16T00:06:56;21.10;99.90
28438;DHT22;15667;52.376;9.708;2023-07-16T00:09:22;20.40;99.90
28438;DHT22;15667;52.376;9.708;2023-07-16T00:11:48;20.50;99.90
28438;DHT22;15667;52.376;9.708;2023-07-16T00:16:39;20.50;99.90
28438;DHT22;15667;52.376;9.708;2023-07-16T00:19:05;20.90;99.90
28438;DHT22;15667;52.376;9.708;2023-07-16T00:21:30;20.50;99.90
28438;DHT22;15667;52.376;9.708;2023-07-16T00:23:56;20.50;99.90
28438;DHT22;15667;52.376;9.708;2023-07-16T00:26:22;20.50;99.90
28438;DHT22;15667;52.376;9.708;2023-07-16T00:28:47;21.80;99.90
28438;DHT22;15667;52.376;9.708;2023-07-16T00:31:13;20.40;99.90
28438;DHT22;15667;52.376;9.708;2023-07-16T00:40:57;20.30;99.90
28438;DHT22;15667;52.376;9.708;2023-07-16T00:45:49;20.20;99.90
28438;DHT22;15667;52.376;9.708;2023-07-16T00:50:41;20.20;99.90
28438;DHT22;15667;52.376;9.708;2023-07-16T00:55:37;20.20;99.90
28438;DHT22;15667;52.376;9.708;2023-07-16T00:58:06;20.20;99.90
28438;DHT22;15667;52.376;9.708;2023-07-16T01:00:33;21.80;99.90
28438;DHT22;15667;52.376;9.708;2023-07-16T01:03:04;20.10;99.90
28438;DHT22;15667;52.376;9.708;2023-07-16T01:05:49;20.10;99.90
28438;DHT22;15667;52.376;9.708;2023-07-16T01:08:36;20.00;99.90
28438;DHT22;15667;52.376;9.708;2023-07-16T01:11:03;20.00;99.90
28438;DHT22;15667;52.376;9.708;2023-07-16T01:13:30;20.10;99.90
28438;DHT22;15667;52.376;9.708;2023-07-16T01:15:56;20.10;99.90
28438;DHT22;15667;52.376;9.708;2023-07-16T01:18:21;20.10;99.90
28438;DHT22;15667;52.376;9.708;2023-07-16T01:20:47;20.10;99.90
28438;DHT22;15667;52.376;9.708;2023-07-16T01:29:35;20.20;99.90
28438;DHT22;15667;52.376;9.708;2023-07-16T01:31:34;20.10;99.90
28438;DHT22;15667;52.376;9.708;2023-07-16T01:34:01;20.10;99.90
28438;DHT22;15667;52.376;9.708;2023-07-16T01:36:29;20.10;99.90
28438;DHT22;15667;52.376;9.708;2023-07-16T01:41:21;20.00;99.90
28438;DHT22;15667;52.376;9.708;2023-07-16T01:48:39;19.90;99.90
28438;DHT22;15667;52.376;9.708;2023-07-16T01:51:05;19.90;99.90
28438;DHT22;15667;52.376;9.708;2023-07-16T01:53:30;20.00;99.90
28438;DHT22;15667;52.376;9.708;2023-07-16T01:55:57;21.10;99.90
28438;DHT22;15667;52.376;9.708;2023-07-16T01:58:23;20.00;99.90
28438;DHT22;15667;52.376;9.708;2023-07-16T02:00:50;20.00;99.90
28438;DHT22;15667;52.376;9.708;2023-07-16T02:05:42;20.00;99.90
28438;DHT22;15667;52.376;9.708;2023-07-16T02:08:07;20.10;99.90
28438;DHT22;15667;52.376;9.708;2023-07-16T02:10:33;20.00;99.90
28438;DHT22;15667;52.376;9.708;2023-07-16T02:12:59;20.00;99.90
28438;DHT22;15667;52.376;9.708;2023-07-16T02:17:50;20.00;99.90
28438;DHT22;15667;52.376;9.708;2023-07-16T02:20:16;20.00;99.90
28438;DHT22;15667;52.376;9.708;2023-07-16T02:27:34;19.80;99.90
28438;DHT22;15667;52.376;9.708;2023-07-16T02:29:59;19.80;99.90
28438;DHT22;15667;52.376;9.708;2023-07-16T02:32:25;19.80;99.90
28438;DHT22;15667;52.376;9.708;2023-07-16T02:34:51;19.80;99.90
28438;DHT22;15667;52.376;9.708;2023-07-16T02:39:45;19.80;99.90
28438;DHT22;15667;52.376;9.708;2023-07-16T02:47:10;19.80;99.90
28438;DHT22;15667;52.376;9.708;2023-07-16T02:49:37;20.90;99.90
28438;DHT22;15667;52.376;9.708;2023-07-16T02:52:03;21.40;99.90
28438;DHT22;15667;52.376;9.708;2023-07-16T03:16:23;19.50;99.90
28438;DHT22;15667;52.376;9.708;2023-07-16T03:23:40;19.40;99.90
28438;DHT22;15667;52.376;9.708;2023-07-16T03:28:32;19.30;99.90
28438;DHT22;15667;52.376;9.708;2023-07-16T03:30:59;19.30;99.90
28438;DHT22;15667;52.376;9.708;2023-07-16T03:33:24;19.30;99.90
28438;DHT22;15667;52.376;9.708;2023-07-16T03:38:16;19.20;99.90
28438;DHT22;15667;52.376;9.708;2023-07-16T03:40:46;19.30;99.90
28438;DHT22;15667;52.376;9.708;2023-07-16T03:43:12;19.20;99.90
28438;DHT22;15667;52.376;9.708;2023-07-16T03:48:04;19.40;99.90
28438;DHT22;15667;52.376;9.708;2023-07-16T03:50:29;19.30;99.90
28438;DHT22;15667;52.376;9.708;2023-07-16T03:55:21;19.20;99.90
28438;DHT22;15667;52.376;9.708;2023-07-16T03:57:47;19.20;99.90
28438;DHT22;15667;52.376;9.708;2023-07-16T04:02:38;19.20;99.90
28438;DHT22;15667;52.376;9.708;2023-07-16T04:05:04;19.20;99.90
28438;DHT22;15667;52.376;9.708;2023-07-16T04:07:30;19.20;99.90
28438;DHT22;15667;52.376;9.708;2023-07-16T04:09:55;19.20;99.90
28438;DHT22;15667;52.376;9.708;2023-07-16T04:12:21;19.20;99.90
28438;DHT22;15667;52.376;9.708;2023-07-16T04:17:13;19.20;99.90
28438;DHT22;15667;52.376;9.708;2023-07-16T04:19:39;19.20;99.90
28438;DHT22;15667;52.376;9.708;2023-07-16T04:22:05;19.20;99.90
28438;DHT22;15667;52.376;9.708;2023-07-16T04:26:58;19.20;99.90
28438;DHT22;15667;52.376;9.708;2023-07-16T04:31:50;19.30;99.90
28438;DHT22;15667;52.376;9.708;2023-07-16T04:36:43;19.30;99.90
28438;DHT22;15667;52.376;9.708;2023-07-16T04:39:08;19.20;99.90
28438;DHT22;15667;52.376;9.708;2023-07-16T04:46:26;19.20;99.90
28438;DHT22;15667;52.376;9.708;2023-07-16T04:48:52;19.30;99.90
28438;DHT22;15667;52.376;9.708;2023-07-16T04:51:18;19.20;99.90
28438;DHT22;15667;52.376;9.708;2023-07-16T04:56:14;19.20;99.90
28438;DHT22;15667;52.376;9.708;2023-07-16T04:58:40;19.90;99.90
28438;DHT22;15667;52.376;9.708;2023-07-16T05:01:07;19.30;99.90
28438;DHT22;15667;52.376;9.708;2023-07-16T05:03:33;19.30;99.90
28438;DHT22;15667;52.376;9.708;2023-07-16T05:15:45;19.50;99.90
28438;DHT22;15667;52.376;9.708;2023-07-16T05:18:11;19.50;99.90
28438;DHT22;15667;52.376;9.708;2023-07-16T05:20:37;19.50;99.90
28438;DHT22;15667;52.376;9.708;2023-07-16T05:23:03;19.70;99.90
28438;DHT22;15667;52.376;9.708;2023-07-16T05:27:55;19.60;99.90
28438;DHT22;15667;52.376;9.708;2023-07-16T05:30:21;19.60;99.90
28438;DHT22;15667;52.376;9.708;2023-07-16T05:32:47;19.60;99.90
28438;DHT22;15667;52.376;9.708;2023-07-16T05:37:39;19.70;99.90
28438;DHT22;15667;52.376;9.708;2023-07-16T05:40:05;19.70;99.90
28438;DHT22;15667;52.376;9.708;2023-07-16T05:42:31;19.80;99.90
28438;DHT22;15667;52.376;9.708;2023-07-16T05:47:23;19.70;99.90
28438;DHT22;15667;52.376;9.708;2023-07-16T05:57:06;20.10;99.90
28438;DHT22;15667;52.376;9.708;2023-07-16T05:59:32;20.10;99.90
28438;DHT22;15667;52.376;9.708;2023-07-16T06:02:04;20.20;99.90
28438;DHT22;15667;52.376;9.708;2023-07-16T06:04:29;20.10;99.90
28438;DHT22;15667;52.376;9.708;2023-07-16T06:06:56;20.30;99.90
28438;DHT22;15667;52.376;9.708;2023-07-16T06:16:40;20.50;99.90
28438;DHT22;15667;52.376;9.708;2023-07-16T06:21:32;20.60;99.90
28438;DHT22;15667;52.376;9.708;2023-07-16T06:23:58;20.70;99.90
28438;DHT22;15667;52.376;9.708;2023-07-16T06:26:24;21.50;99.90
28438;DHT22;15667;52.376;9.708;2023-07-16T06:28:50;20.70;99.90
28438;DHT22;15667;52.376;9.708;2023-07-16T06:31:16;20.80;99.90
28438;DHT22;15667;52.376;9.708;2023-07-16T06:45:53;20.80;99.90
28438;DHT22;15667;52.376;9.708;2023-07-16T06:48:19;20.90;99.90
28438;DHT22;15667;52.376;9.708;2023-07-16T07:02:55;21.30;99.90
28438;DHT22;15667;52.376;9.708;2023-07-16T07:05:22;21.40;99.90
28438;DHT22;15667;52.376;9.708;2023-07-16T07:20:03;21.40;99.90
28438;DHT22;15667;52.376;9.708;2023-07-16T07:24:56;21.30;99.90
28438;DHT22;15667;52.376;9.708;2023-07-16T07:32:22;21.70;99.90
28438;DHT22;15667;52.376;9.708;2023-07-16T07:34:48;21.60;99.90
28438;DHT22;15667;52.376;9.708;2023-07-16T07:37:13;21.70;99.90
28438;DHT22;15667;52.376;9.708;2023-07-16T07:39:39;21.60;99.90
28438;DHT22;15667;52.376;9.708;2023-07-16T07:42:05;21.70;99.90
28438;DHT22;15667;52.376;9.708;2023-07-16T07:56:42;21.80;99.90
28438;DHT22;15667;52.376;9.708;2023-07-16T08:01:33;21.80;99.90
28438;DHT22;15667;52.376;9.708;2023-07-16T08:30:48;22.20;99.90
28438;DHT22;15667;52.376;9.708;2023-07-16T08:33:14;22.50;99.90
28438;DHT22;15667;52.376;9.708;2023-07-16T08:35:41;22.40;99.90
28438;DHT22;15667;52.376;9.708;2023-07-16T08:40:37;22.60;99.90
28438;DHT22;15667;52.376;9.708;2023-07-16T08:45:29;22.70;99.90
28438;DHT22;15667;52.376;9.708;2023-07-16T08:48:04;22.50;99.90
28438;DHT22;15667;52.376;9.708;2023-07-16T08:55:22;22.10;99.90
28438;DHT22;15667;52.376;9.708;2023-07-16T08:57:48;22.20;99.90
28438;DHT22;15667;52.376;9.708;2023-07-16T09:00:17;22.20;99.90
28438;DHT22;15667;52.376;9.708;2023-07-16T09:05:14;22.30;99.90
28438;DHT22;15667;52.376;9.708;2023-07-16T09:10:06;22.30;99.90
28438;DHT22;15667;52.376;9.708;2023-07-16T09:12:32;22.40;99.90
28438;DHT22;15667;52.376;9.708;2023-07-16T09:17:24;22.60;99.90
28438;DHT22;15667;52.376;9.708;2023-07-16T09:19:51;22.50;99.90
28438;DHT22;15667;52.376;9.708;2023-07-16T09:22:18;23.20;99.90
28438;DHT22;15667;52.376;9.708;2023-07-16T09:24:45;22.70;99.90
28438;DHT22;15667;52.376;9.708;2023-07-16T09:29:38;23.10;99.90
28438;DHT22;15667;52.376;9.708;2023-07-16T09:32:04;23.30;99.90
28438;DHT22;15667;52.376;9.708;2023-07-16T09:34:32;23.40;99.90
28438;DHT22;15667;52.376;9.708;2023-07-16T09:36:59;23.60;99.90
28438;DHT22;15667;52.376;9.708;2023-07-16T09:39:26;23.60;99.90
28438;DHT22;15667;52.376;9.708;2023-07-16T09:41:53;23.40;99.90
28438;DHT22;15667;52.376;9.708;2023-07-16T09:44:19;23.40;99.90
28438;DHT22;15667;52.376;9.708;2023-07-16T09:46:46;23.20;99.90
28438;DHT22;15667;52.376;9.708;2023-07-16T09:51:39;23.20;99.90
28438;DHT22;15667;52.376;9.708;2023-07-16T09:54:05;23.50;99.90
28438;DHT22;15667;52.376;9.708;2023-07-16T09:59:15;24.00;99.90
28438;DHT22;15667;52.376;9.708;2023-07-16T10:04:15;24.20;99.90
28438;DHT22;15667;52.376;9.708;2023-07-16T10:07:00;24.30;99.90
28438;DHT22;15667;52.376;9.708;2023-07-16T10:09:33;25.00;99.90
28438;DHT22;15667;52.376;9.708;2023-07-16T10:12:13;25.00;99.90
28438;DHT22;15667;52.376;9.708;2023-07-16T10:14:47;25.20;99.90
28438;DHT22;15667;52.376;9.708;2023-07-16T10:17:24;25.60;99.90
28438;DHT22;15667;52.376;9.708;2023-07-16T10:20:09;25.80;99.90
28438;DHT22;15667;52.376;9.708;2023-07-16T10:22:39;26.20;99.90
28438;DHT22;15667;52.376;9.708;2023-07-16T10:25:23;26.60;98.70
28438;DHT22;15667;52.376;9.708;2023-07-16T10:27:51;25.90;97.90
28438;DHT22;15667;52.376;9.708;2023-07-16T10:30:20;26.00;98.10
28438;DHT22;15667;52.376;9.708;2023-07-16T10:35:17;26.60;97.70
28438;DHT22;15667;52.376;9.708;2023-07-16T10:37:42;26.80;96.80
28438;DHT22;15667;52.376;9.708;2023-07-16T10:40:13;27.00;97.00
28438;DHT22;15667;52.376;9.708;2023-07-16T10:42:41;27.20;95.10
28438;DHT22;15667;52.376;9.708;2023-07-16T10:45:08;27.40;93.90
28438;DHT22;15667;52.376;9.708;2023-07-16T10:47:36;27.80;93.00
28438;DHT22;15667;52.376;9.708;2023-07-16T10:50:07;27.70;91.70
28438;DHT22;15667;52.376;9.708;2023-07-16T10:52:34;27.70;92.30
28438;DHT22;15667;52.376;9.708;2023-07-16T10:55:00;27.80;91.90
28438;DHT22;15667;52.376;9.708;2023-07-16T10:57:26;28.80;91.20
28438;DHT22;15667;52.376;9.708;2023-07-16T10:59:53;29.10;88.60
28438;DHT22;15667;52.376;9.708;2023-07-16T11:02:20;29.00;84.50
28438;DHT22;15667;52.376;9.708;2023-07-16T11:04:47;29.10;83.20
28438;DHT22;15667;52.376;9.708;2023-07-16T11:07:14;28.90;81.90
28438;DHT22;15667;52.376;9.708;2023-07-16T11:09:53;28.90;78.10
28438;DHT22;15667;52.376;9.708;2023-07-16T11:12:22;28.80;77.60
28438;DHT22;15667;52.376;9.708;2023-07-16T11:14:50;28.90;77.40
28438;DHT22;15667;52.376;9.708;2023-07-16T11:17:16;28.70;77.90
28438;DHT22;15667;52.376;9.708;2023-07-16T11:19:46;29.10;77.50
28438;DHT22;15667;52.376;9.708;2023-07-16T11:22:13;29.50;75.90
28438;DHT22;15667;52.376;9.708;2023-07-16T11:24:49;29.80;75.50
28438;DHT22;15667;52.376;9.708;2023-07-16T11:27:17;29.40;72.20
28438;DHT22;15667;52.376;9.708;2023-07-16T11:30:05;28.70;72.90
28438;DHT22;15667;52.376;9.708;2023-07-16T11:32:41;28.00;74.00
28438;DHT22;15667;52.376;9.708;2023-07-16T11:35:08;27.40;75.60
28438;DHT22;15667;52.376;9.708;2023-07-16T11:37:35;27.10;74.40
28438;DHT22;15667;52.376;9.708;2023-07-16T11:40:07;27.10;75.20
28438;DHT22;15667;52.376;9.708;2023-07-16T11:42:35;27.30;74.10
28438;DHT22;15667;52.376;9.708;2023-07-16T11:45:01;28.70;71.30
28438;DHT22;15667;52.376;9.708;2023-07-16T11:47:28;28.40;71.30
28438;DHT22;15667;52.376;9.708;2023-07-16T11:52:22;27.40;74.00
28438;DHT22;15667;52.376;9.708;2023-07-16T11:54:48;27.40;74.20
28438;DHT22;15667;52.376;9.708;2023-07-16T11:57:15;27.30;72.70
28438;DHT22;15667;52.376;9.708;2023-07-16T11:59:41;28.50;71.70
28438;DHT22;15667;52.376;9.708;2023-07-16T12:02:07;29.30;73.10
28438;DHT22;15667;52.376;9.708;2023-07-16T12:04:33;28.90;71.40
28438;DHT22;15667;52.376;9.708;2023-07-16T12:06:58;30.30;71.60
28438;DHT22;15667;52.376;9.708;2023-07-16T12:09:24;29.90;67.20
28438;DHT22;15667;52.376;9.708;2023-07-16T12:11:50;29.60;67.60
28438;DHT22;15667;52.376;9.708;2023-07-16T12:14:15;30.30;67.60
28438;DHT22;15667;52.376;9.708;2023-07-16T12:16:41;30.40;65.50
28438;DHT22;15667;52.376;9.708;2023-07-16T12:19:08;30.50;64.00
28438;DHT22;15667;52.376;9.708;2023-07-16T12:21:34;30.50;63.90
28438;DHT22;15667;52.376;9.708;2023-07-16T12:24:00;29.90;63.50
28438;DHT22;15667;52.376;9.708;2023-07-16T12:26:25;29.70;64.30
28438;DHT22;15667;52.376;9.708;2023-07-16T12:28:51;29.10;65.10
28438;DHT22;15667;52.376;9.708;2023-07-16T12:31:17;29.10;66.30
28438;DHT22;15667;52.376;9.708;2023-07-16T12:33:43;30.00;64.80
28438;DHT22;15667;52.376;9.708;2023-07-16T12:36:09;30.80;64.10
28438;DHT22;15667;52.376;9.708;2023-07-16T12:38:35;30.00;62.20
28438;DHT22;15667;52.376;9.708;2023-07-16T12:41:00;29.80;63.80
28438;DHT22;15667;52.376;9.708;2023-07-16T12:43:26;30.10;62.70
28438;DHT22;15667;52.376;9.708;2023-07-16T12:45:51;29.60;63.60
28438;DHT22;15667;52.376;9.708;2023-07-16T12:48:17;29.00;64.50
28438;DHT22;15667;52.376;9.708;2023-07-16T12:50:43;30.90;64.30
28438;DHT22;15667;52.376;9.708;2023-07-16T12:53:08;30.20;63.20
28438;DHT22;15667;52.376;9.708;2023-07-16T12:55:34;30.80;61.80
28438;DHT22;15667;52.376;9.708;2023-07-16T12:58:00;31.00;60.70
28438;DHT22;15667;52.376;9.708;2023-07-16T13:00:25;31.10;60.50
28438;DHT22;15667;52.376;9.708;2023-07-16T13:02:51;30.70;58.80
28438;DHT22;15667;52.376;9.708;2023-07-16T13:05:17;31.40;59.30
28438;DHT22;15667;52.376;9.708;2023-07-16T13:07:42;30.50;59.80
28438;DHT22;15667;52.376;9.708;2023-07-16T13:10:09;30.50;61.50
28438;DHT22;15667;52.376;9.708;2023-07-16T13:12:34;31.00;59.40
28438;DHT22;15667;52.376;9.708;2023-07-16T13:15:00;31.10;57.60
28438;DHT22;15667;52.376;9.708;2023-07-16T13:17:26;31.20;58.20
28438;DHT22;15667;52.376;9.708;2023-07-16T13:19:51;31.50;56.80
28438;DHT22;15667;52.376;9.708;2023-07-16T13:22:17;31.40;56.10
28438;DHT22;15667;52.376;9.708;2023-07-16T13:24:43;31.20;57.60
28438;DHT22;15667;52.376;9.708;2023-07-16T13:27:18;31.70;56.90
28438;DHT22;15667;52.376;9.708;2023-07-16T13:29:44;31.00;57.30
28438;DHT22;15667;52.376;9.708;2023-07-16T13:32:10;30.60;57.70
28438;DHT22;15667;52.376;9.708;2023-07-16T13:34:35;30.30;57.50
28438;DHT22;15667;52.376;9.708;2023-07-16T13:37:01;30.50;56.80
28438;DHT22;15667;52.376;9.708;2023-07-16T13:39:30;30.30;57.00
28438;DHT22;15667;52.376;9.708;2023-07-16T13:41:55;30.50;57.30
28438;DHT22;15667;52.376;9.708;2023-07-16T13:44:21;30.80;57.20
28438;DHT22;15667;52.376;9.708;2023-07-16T13:46:47;31.50;56.40
28438;DHT22;15667;52.376;9.708;2023-07-16T13:49:12;31.80;53.90
28438;DHT22;15667;52.376;9.708;2023-07-16T13:51:39;31.70;54.90
28438;DHT22;15667;52.376;9.708;2023-07-16T13:54:05;31.90;54.10
28438;DHT22;15667;52.376;9.708;2023-07-16T13:56:31;32.10;54.10
28438;DHT22;15667;52.376;9.708;2023-07-16T13:58:56;31.50;54.50
28438;DHT22;15667;52.376;9.708;2023-07-16T14:01:24;31.70;52.80
28438;DHT22;15667;52.376;9.708;2023-07-16T14:03:50;31.20;53.50
28438;DHT22;15667;52.376;9.708;2023-07-16T14:06:15;30.90;54.70
28438;DHT22;15667;52.376;9.708;2023-07-16T14:08:41;31.10;53.80
28438;DHT22;15667;52.376;9.708;2023-07-16T14:11:07;31.20;54.90
28438;DHT22;15667;52.376;9.708;2023-07-16T14:13:35;31.40;53.00
28438;DHT22;15667;52.376;9.708;2023-07-16T14:16:01;31.00;53.10
28438;DHT22;15667;52.376;9.708;2023-07-16T14:18:28;31.00;54.70
28438;DHT22;15667;52.376;9.708;2023-07-16T14:20:54;31.20;53.20
28438;DHT22;15667;52.376;9.708;2023-07-16T14:23:19;29.90;55.00
28438;DHT22;15667;52.376;9.708;2023-07-16T14:25:45;29.50;56.50
28438;DHT22;15667;52.376;9.708;2023-07-16T14:28:11;30.00;55.60
28438;DHT22;15667;52.376;9.708;2023-07-16T14:30:37;30.20;54.30
28438;DHT22;15667;52.376;9.708;2023-07-16T14:33:02;30.30;54.20
28438;DHT22;15667;52.376;9.708;2023-07-16T14:35:30;29.80;54.60
28438;DHT22;15667;52.376;9.708;2023-07-16T14:37:55;29.60;55.50
28438;DHT22;15667;52.376;9.708;2023-07-16T14:40:21;29.80;56.00
28438;DHT22;15667;52.376;9.708;2023-07-16T14:42:47;30.00;54.80
28438;DHT22;15667;52.376;9.708;2023-07-16T14:45:12;30.50;54.50
28438;DHT22;15667;52.376;9.708;2023-07-16T14:47:40;30.70;54.10
28438;DHT22;15667;52.376;9.708;2023-07-16T14:50:06;31.00;54.30
28438;DHT22;15667;52.376;9.708;2023-07-16T14:52:31;30.90;53.70
28438;DHT22;15667;52.376;9.708;2023-07-16T14:54:57;30.20;54.20
28438;DHT22;15667;52.376;9.708;2023-07-16T14:57:22;29.50;54.20
28438;DHT22;15667;52.376;9.708;2023-07-16T14:59:48;28.60;56.80
28438;DHT22;15667;52.376;9.708;2023-07-16T15:02:14;28.00;57.40
28438;DHT22;15667;52.376;9.708;2023-07-16T15:04:39;28.00;57.70
28438;DHT22;15667;52.376;9.708;2023-07-16T15:07:05;28.10;58.10
28438;DHT22;15667;52.376;9.708;2023-07-16T15:09:31;28.40;57.70
28438;DHT22;15667;52.376;9.708;2023-07-16T15:14:23;27.10;59.20
28438;DHT22;15667;52.376;9.708;2023-07-16T15:16:48;26.70;60.00
28438;DHT22;15667;52.376;9.708;2023-07-16T15:19:14;26.30;61.90
28438;DHT22;15667;52.376;9.708;2023-07-16T15:21:42;26.10;61.70
28438;DHT22;15667;52.376;9.708;2023-07-16T15:24:08;26.40;62.00
28438;DHT22;15667;52.376;9.708;2023-07-16T15:29:00;27.00;59.40
28438;DHT22;15667;52.376;9.708;2023-07-16T15:31:26;27.40;60.20
28438;DHT22;15667;52.376;9.708;2023-07-16T15:33:55;27.60;58.90
28438;DHT22;15667;52.376;9.708;2023-07-16T15:36:21;27.70;59.10
28438;DHT22;15667;52.376;9.708;2023-07-16T15:38:47;27.50;59.60
28438;DHT22;15667;52.376;9.708;2023-07-16T15:41:15;26.60;58.60
28438;DHT22;15667;52.376;9.708;2023-07-16T15:43:41;27.20;57.50
28438;DHT22;15667;52.376;9.708;2023-07-16T15:48:35;28.30;57.20
28438;DHT22;15667;52.376;9.708;2023-07-16T15:51:01;28.40;58.00
28438;DHT22;15667;52.376;9.708;2023-07-16T15:53:27;27.80;57.10
28438;DHT22;15667;52.376;9.708;2023-07-16T15:55:53;29.00;57.30
28438;DHT22;15667;52.376;9.708;2023-07-16T16:00:46;28.30;57.00
28438;DHT22;15667;52.376;9.708;2023-07-16T16:03:12;28.10;58.60
28438;DHT22;15667;52.376;9.708;2023-07-16T16:05:39;27.90;58.50
28438;DHT22;15667;52.376;9.708;2023-07-16T16:08:18;27.90;59.40
28438;DHT22;15667;52.376;9.708;2023-07-16T16:10:46;28.00;58.90
28438;DHT22;15667;52.376;9.708;2023-07-16T16:13:13;27.90;59.10
28438;DHT22;15667;52.376;9.708;2023-07-16T16:22:59;26.00;63.40
28438;DHT22;15667;52.376;9.708;2023-07-16T16:25:29;25.90;65.40
28438;DHT22;15667;52.376;9.708;2023-07-16T16:27:57;26.00;63.70
28438;DHT22;15667;52.376;9.708;2023-07-16T16:32:49;26.00;64.50
28438;DHT22;15667;52.376;9.708;2023-07-16T16:35:24;25.90;63.70
28438;DHT22;15667;52.376;9.708;2023-07-16T16:40:16;25.70;65.30
28438;DHT22;15667;52.376;9.708;2023-07-16T16:42:45;25.50;63.90
28438;DHT22;15667;52.376;9.708;2023-07-16T16:45:12;25.40;65.00
28438;DHT22;15667;52.376;9.708;2023-07-16T16:47:39;25.30;64.90
28438;DHT22;15667;52.376;9.708;2023-07-16T16:50:07;25.10;65.50
28438;DHT22;15667;52.376;9.708;2023-07-16T16:52:33;24.90;66.50
28438;DHT22;15667;52.376;9.708;2023-07-16T17:14:38;24.80;67.60
28438;DHT22;15667;52.376;9.708;2023-07-16T17:17:15;24.70;68.70
28438;DHT22;15667;52.376;9.708;2023-07-16T17:19:46;24.70;69.50
28438;DHT22;15667;52.376;9.708;2023-07-16T17:27:06;24.70;69.50
28438;DHT22;15667;52.376;9.708;2023-07-16T17:29:34;24.70;70.80
28438;DHT22;15667;52.376;9.708;2023-07-16T17:32:00;24.60;70.20
28438;DHT22;15667;52.376;9.708;2023-07-16T17:36:59;24.60;72.40
28438;DHT22;15667;52.376;9.708;2023-07-16T17:39:27;24.60;74.80
28438;DHT22;15667;52.376;9.708;2023-07-16T17:49:14;24.30;72.20
28438;DHT22;15667;52.376;9.708;2023-07-16T18:01:27;24.00;73.20
28438;DHT22;15667;52.376;9.708;2023-07-16T18:03:59;24.00;74.10
28438;DHT22;15667;52.376;9.708;2023-07-16T18:09:03;23.90;74.50
28438;DHT22;15667;52.376;9.708;2023-07-16T18:13:57;23.80;75.60
28438;DHT22;15667;52.376;9.708;2023-07-16T18:16:23;23.80;76.20
28438;DHT22;15667;52.376;9.708;2023-07-16T18:18:49;23.80;77.30
28438;DHT22;15667;52.376;9.708;2023-07-16T18:21:14;23.70;77.40
28438;DHT22;15667;52.376;9.708;2023-07-16T18:31:00;23.50;77.30
28438;DHT22;15667;52.376;9.708;2023-07-16T18:35:53;23.30;78.70
28438;DHT22;15667;52.376;9.708;2023-07-16T18:38:20;23.20;79.40
28438;DHT22;15667;52.376;9.708;2023-07-16T18:43:12;23.20;79.70
28438;DHT22;15667;52.376;9.708;2023-07-16T18:45:37;23.20;80.10
28438;DHT22;15667;52.376;9.708;2023-07-16T19:02:51;23.10;80.50
28438;DHT22;15667;52.376;9.708;2023-07-16T19:05:18;23.00;81.90
28438;DHT22;15667;52.376;9.708;2023-07-16T19:12:49;23.00;82.30
28438;DHT22;15667;52.376;9.708;2023-07-16T19:15:16;22.90;83.20
28438;DHT22;15667;52.376;9.708;2023-07-16T19:22:38;22.80;82.50
28438;DHT22;15667;52.376;9.708;2023-07-16T19:25:04;22.70;82.40
28438;DHT22;15667;52.376;9.708;2023-07-16T19:27:30;22.70;83.00
28438;DHT22;15667;52.376;9.708;2023-07-16T19:51:57;22.20;88.60
28438;DHT22;15667;52.376;9.708;2023-07-16T20:09:02;22.10;89.30
28438;DHT22;15667;52.376;9.708;2023-07-16T20:18:56;22.00;90.40
28438;DHT22;15667;52.376;9.708;2023-07-16T20:21:25;22.10;90.50
28438;DHT22;15667;52.376;9.708;2023-07-16T20:31:12;22.00;90.30
28438;DHT22;15667;52.376;9.708;2023-07-16T20:40:56;21.90;91.20
28438;DHT22;15667;52.376;9.708;2023-07-16T20:48:19;21.80;91.30
28438;DHT22;15667;52.376;9.708;2023-07-16T20:50:51;22.40;92.10
28438;DHT22;15667;52.376;9.708;2023-07-16T20:55:43;21.80;92.10
28438;DHT22;15667;52.376;9.708;2023-07-16T20:58:08;22.00;92.10
28438;DHT22;15667;52.376;9.708;2023-07-16T21:03:04;20.90;91.80
28438;DHT22;15667;52.376;9.708;2023-07-16T21:05:32;21.60;92.00
28438;DHT22;15667;52.376;9.708;2023-07-16T21:08:01;21.60;92.40
28438;DHT22;15667;52.376;9.708;2023-07-16T21:10:27;21.60;92.40
28438;DHT22;15667;52.376;9.708;2023-07-16T21:12:55;21.50;92.60
28438;DHT22;15667;52.376;9.708;2023-07-16T21:15:21;21.50;92.50
28438;DHT22;15667;52.376;9.708;2023-07-16T21:20:14;21.50;92.60
28438;DHT22;15667;52.376;9.708;2023-07-16T21:22:40;21.40;93.70
28438;DHT22;15667;52.376;9.708;2023-07-16T21:27:56;21.40;93.10
28438;DHT22;15667;52.376;9.708;2023-07-16T21:32:48;21.30;93.50
28438;DHT22;15667;52.376;9.708;2023-07-16T21:35:15;21.30;94.00
28438;DHT22;15667;52.376;9.708;2023-07-16T21:40:07;21.20;94.00
28438;DHT22;15667;52.376;9.708;2023-07-16T21:45:02;21.30;94.80
28438;DHT22;15667;52.376;9.708;2023-07-16T21:47:30;21.10;95.00
28438;DHT22;15667;52.376;9.708;2023-07-16T21:54:48;21.00;95.40
28438;DHT22;15667;52.376;9.708;2023-07-16T21:57:14;20.90;96.10
28438;DHT22;15667;52.376;9.708;2023-07-16T21:59:40;21.00;95.90
28438;DHT22;15667;52.376;9.708;2023-07-16T22:02:09;20.90;96.30
28438;DHT22;15667;52.376;9.708;2023-07-16T22:04:35;20.90;95.90
28438;DHT22;15667;52.376;9.708;2023-07-16T22:14:22;20.80;95.90
28438;DHT22;15667;52.376;9.708;2023-07-16T22:21:39;20.80;96.00
28438;DHT22;15667;52.376;9.708;2023-07-16T22:26:32;20.80;96.10
28438;DHT22;15667;52.376;9.708;2023-07-16T22:31:25;20.80;96.90
28438;DHT22;15667;52.376;9.708;2023-07-16T22:33:50;22.50;97.50
28438;DHT22;15667;52.376;9.708;2023-07-16T22:36:17;20.60;96.20
28438;DHT22;15667;52.376;9.708;2023-07-16T22:38:42;22.10;96.90
28438;DHT22;15667;52.376;9.708;2023-07-16T22:41:08;20.60;97.00
28438;DHT22;15667;52.376;9.708;2023-07-16T22:48:27;20.60;97.40
28438;DHT22;15667;52.376;9.708;2023-07-16T22:53:19;20.70;98.10
28438;DHT22;15667;52.376;9.708;2023-07-16T22:55:45;21.60;98.90
28438;DHT22;15667;52.376;9.708;2023-07-16T22:58:11;20.60;98.60
28438;DHT22;15667;52.376;9.708;2023-07-16T23:00:38;20.60;97.70
28438;DHT22;15667;52.376;9.708;2023-07-16T23:03:06;22.20;98.50
28438;DHT22;15667;52.376;9.708;2023-07-16T23:05:34;20.60;98.60
28438;DHT22;15667;52.376;9.708;2023-07-16T23:10:29;20.40;98.30
28438;DHT22;15667;52.376;9.708;2023-07-16T23:12:55;20.50;98.00
28438;DHT22;15667;52.376;9.708;2023-07-16T23:15:21;20.50;98.30
28438;DHT22;15667;52.376;9.708;2023-07-16T23:17:46;20.40;98.50
28438;DHT22;15667;52.376;9.708;2023-07-16T23:22:39;20.50;98.40
28438;DHT22;15667;52.376;9.708;2023-07-16T23:25:05;20.50;98.40
28438;DHT22;15667;52.376;9.708;2023-07-16T23:27:32;20.50;98.60